Time;durP1;ratioP1;P1;durP2;ratioP2;P2;SDS_P1;SDS_P2;PMS_P1;PMS_P2;Temp;Humidity;BMP_temperature;BMP_pressure;BME280_temperature;BME280_humidity;BME280_pressure;Samples;Min_cycle;Max_cycle;Signal;HPM_P1;HPM_P2
2022/11/25 00:02:11;;;;;;;113.10;43.50;;;;;;;1.21;100.00;98576.38;213930;1312;23151;-72
2022/11/25 00:07:12;;;;;;;121.20;50.40;;;;;;;1.25;100.00;98580.11;213933;1311;24456;-73
2022/11/25 00:12:21;;;;;;;111.00;46.60;;;;;;;1.31;100.00;98588.84;213854;1307;22522;-71
2022/11/25 00:17:23;;;;;;;129.50;52.20;;;;;;;1.36;100.00;98592.96;213683;1312;25416;-72
2022/11/25 00:22:25;;;;;;;114.20;50.90;;;;;;;1.40;100.00;98596.52;213932;1311;25318;-72
2022/11/25 00:27:27;;;;;;;100.30;42.20;;;;;;;1.44;100.00;98592.91;213826;1312;25321;-71
2022/11/25 00:32:31;;;;;;;115.60;44.10;;;;;;;1.48;100.00;98592.14;213870;1312;22501;-71
2022/11/25 00:37:33;;;;;;;131.70;53.50;;;;;;;1.49;100.00;98593.65;213844;1311;22524;-72
2022/11/25 00:48:05;;;;;;;109.10;43.80;;;;;;;1.69;100.00;98598.31;213855;1312;22480;-72
2022/11/25 00:53:07;;;;;;;110.30;40.70;;;;;;;1.73;100.00;98602.14;213856;1311;23933;-72
2022/11/25 00:58:09;;;;;;;111.30;43.50;;;;;;;1.76;100.00;98599.66;213733;1312;22470;-72
2022/11/25 01:03:12;;;;;;;105.90;42.70;;;;;;;1.79;100.00;98605.86;213808;1312;24330;-71
2022/11/25 01:08:14;;;;;;;109.20;44.70;;;;;;;1.85;100.00;98607.55;213875;1312;22497;-72
2022/11/25 01:13:16;;;;;;;95.80;41.80;;;;;;;1.97;100.00;98606.60;213765;1313;22472;-72
2022/11/25 01:18:18;;;;;;;104.90;43.30;;;;;;;2.06;100.00;98607.34;213819;1312;25280;-75
2022/11/25 01:23:19;;;;;;;99.50;41.10;;;;;;;2.13;100.00;98605.95;213837;1312;25323;-72
2022/11/25 01:28:21;;;;;;;82.30;37.20;;;;;;;2.17;100.00;98607.45;213921;1312;23904;-73
2022/11/25 01:33:27;;;;;;;104.30;42.20;;;;;;;2.16;100.00;98606.90;213811;1312;25430;-72
2022/11/25 01:38:33;;;;;;;95.10;35.90;;;;;;;2.15;100.00;98602.45;213967;1312;25393;-72
2022/11/25 01:43:36;;;;;;;91.80;37.70;;;;;;;2.15;100.00;98602.91;213993;1312;22786;-72
2022/11/25 01:48:45;;;;;;;97.70;39.90;;;;;;;2.17;100.00;98609.69;213803;1312;24381;-73
2022/11/25 01:53:48;;;;;;;101.50;40.40;;;;;;;2.20;100.00;98609.66;213824;1312;21976;-72
2022/11/25 01:58:50;;;;;;;92.70;36.10;;;;;;;2.28;100.00;98613.40;213928;1312;23133;-72
2022/11/25 02:03:56;;;;;;;103.70;41.00;;;;;;;2.34;100.00;98613.54;213850;1312;22505;-73
2022/11/25 02:09:03;;;;;;;101.30;40.60;;;;;;;2.43;100.00;98613.80;213945;1312;25252;-73
2022/11/25 02:14:07;;;;;;;90.40;36.00;;;;;;;2.49;100.00;98614.23;213648;1312;25342;-73
2022/11/25 02:19:21;;;;;;;92.20;38.40;;;;;;;2.52;100.00;98613.02;213899;1312;24266;-73
2022/11/25 02:24:37;;;;;;;82.90;33.70;;;;;;;2.53;100.00;98616.04;213818;1312;22803;-73
2022/11/25 02:29:42;;;;;;;100.60;42.60;;;;;;;2.53;100.00;98620.64;213808;1312;24374;-72
2022/11/25 02:34:48;;;;;;;94.70;39.00;;;;;;;2.55;100.00;98619.19;213851;1311;22469;-74
2022/11/25 02:39:52;;;;;;;91.50;37.70;;;;;;;2.60;100.00;98616.05;213977;1306;22680;-73
2022/11/25 02:44:54;;;;;;;85.00;35.20;;;;;;;2.61;100.00;98617.61;213879;1311;22464;-73
2022/11/25 02:49:57;;;;;;;91.70;34.60;;;;;;;2.57;100.00;98619.80;213911;1312;22476;-71
2022/11/25 02:54:59;;;;;;;81.20;33.00;;;;;;;2.56;100.00;98622.59;214009;1295;24120;-73
2022/11/25 03:00:03;;;;;;;89.80;36.80;;;;;;;2.54;100.00;98623.58;213903;1312;24327;-74
2022/11/25 03:05:06;;;;;;;86.20;35.20;;;;;;;2.54;100.00;98626.80;213850;1312;25269;-73
2022/11/25 03:10:08;;;;;;;88.50;36.70;;;;;;;2.50;100.00;98629.48;213795;1312;22490;-72
2022/11/25 03:15:11;;;;;;;88.80;36.30;;;;;;;2.53;100.00;98632.80;213840;1312;24349;-73
2022/11/25 03:20:14;;;;;;;78.70;35.70;;;;;;;2.55;100.00;98634.78;213662;1312;25326;-74
2022/11/25 03:25:16;;;;;;;69.20;32.90;;;;;;;2.54;100.00;98633.14;213876;1312;25268;-73
2022/11/25 03:30:21;;;;;;;78.70;35.20;;;;;;;2.54;100.00;98633.30;213841;1313;25320;-72
2022/11/25 03:35:24;;;;;;;89.00;37.00;;;;;;;2.57;100.00;98640.64;214015;1296;22509;-73
2022/11/25 03:40:27;;;;;;;93.90;39.30;;;;;;;2.60;100.00;98645.30;213865;1311;25461;-72
2022/11/25 03:45:29;;;;;;;72.70;31.60;;;;;;;2.67;100.00;98647.62;213932;1312;24443;-73
2022/11/25 03:50:32;;;;;;;86.40;35.30;;;;;;;2.67;100.00;98647.37;213927;1312;24373;-73
2022/11/25 03:55:34;;;;;;;82.30;34.40;;;;;;;2.70;100.00;98648.69;213715;1312;24277;-72
2022/11/25 04:00:38;;;;;;;88.60;36.40;;;;;;;2.73;100.00;98646.63;213805;1304;22506;-72
2022/11/25 04:05:40;;;;;;;83.90;34.10;;;;;;;2.79;100.00;98652.05;213851;1308;22587;-73
2022/11/25 04:10:42;;;;;;;82.60;32.00;;;;;;;2.86;100.00;98648.11;213875;1312;24243;-73
2022/11/25 04:15:46;;;;;;;81.60;35.00;;;;;;;2.85;100.00;98648.66;213845;1313;22471;-72
2022/11/25 04:20:48;;;;;;;77.30;32.50;;;;;;;2.81;100.00;98650.19;213897;1312;25332;-72
2022/11/25 04:25:51;;;;;;;73.80;33.30;;;;;;;2.81;100.00;98651.52;213820;1312;22520;-72
2022/11/25 04:30:57;;;;;;;80.30;33.70;;;;;;;2.79;100.00;98652.11;213948;1312;24452;-73
2022/11/25 04:35:59;;;;;;;65.00;29.10;;;;;;;2.74;100.00;98654.15;213791;1312;24380;-73
2022/11/25 04:41:01;;;;;;;70.70;32.10;;;;;;;2.73;100.00;98656.04;213835;1311;22502;-73
2022/11/25 04:46:07;;;;;;;69.50;31.40;;;;;;;2.73;100.00;98664.77;213634;1312;22520;-74
2022/11/25 04:51:19;;;;;;;72.70;30.80;;;;;;;2.78;100.00;98661.04;213783;1313;22470;-73
2022/11/25 04:56:24;;;;;;;66.20;29.80;;;;;;;2.81;100.00;98664.48;213878;1312;22467;-72
2022/11/25 05:01:27;;;;;;;79.00;34.00;;;;;;;2.79;100.00;98669.31;213724;1312;22584;-72
2022/11/25 05:06:35;;;;;;;86.50;35.10;;;;;;;2.78;100.00;98682.01;213808;1312;25408;-72
2022/11/25 05:11:37;;;;;;;73.50;32.30;;;;;;;2.83;100.00;98693.30;213820;1312;22992;-71
2022/11/25 05:16:39;;;;;;;67.90;29.70;;;;;;;2.87;100.00;98691.83;213646;1313;23286;-72
2022/11/25 05:21:43;;;;;;;80.00;32.90;;;;;;;2.89;100.00;98699.15;213819;1312;26364;-73
2022/11/25 05:26:45;;;;;;;85.50;34.70;;;;;;;2.92;100.00;98701.65;213875;1312;22617;-74
2022/11/25 05:31:47;;;;;;;74.50;33.00;;;;;;;3.01;100.00;98702.21;213837;1312;25432;-72
2022/11/25 05:36:50;;;;;;;71.40;30.40;;;;;;;3.08;100.00;98708.37;213828;1312;22493;-73
2022/11/25 05:41:53;;;;;;;72.40;31.50;;;;;;;3.08;100.00;98708.23;213770;1310;22475;-72
2022/11/25 05:46:55;;;;;;;76.30;31.90;;;;;;;3.06;100.00;98711.86;213860;1311;24987;-73
2022/11/25 05:51:57;;;;;;;72.30;31.10;;;;;;;3.06;100.00;98713.24;213917;1312;25443;-73
2022/11/25 05:56:59;;;;;;;79.00;33.90;;;;;;;3.09;100.00;98716.16;213842;1312;25308;-73
2022/11/25 06:02:19;;;;;;;81.60;34.60;;;;;;;3.16;100.00;98716.41;213747;1312;25258;-74
2022/11/25 06:07:21;;;;;;;74.70;34.30;;;;;;;3.19;100.00;98715.83;213782;1312;22501;-74
2022/11/25 06:12:23;;;;;;;86.00;35.50;;;;;;;3.21;100.00;98723.11;213810;1312;25368;-72
2022/11/25 06:17:25;;;;;;;78.60;34.30;;;;;;;3.21;100.00;98729.42;213828;1312;22472;-73
2022/11/25 06:22:36;;;;;;;74.10;33.70;;;;;;;3.21;100.00;98730.58;213857;1312;24074;-73
2022/11/25 06:27:38;;;;;;;67.60;31.70;;;;;;;3.18;100.00;98733.61;213805;1312;22577;-72
2022/11/25 06:33:00;;;;;;;67.50;29.70;;;;;;;3.18;100.00;98730.52;213884;1307;22703;-73
2022/11/25 06:38:02;;;;;;;67.40;31.70;;;;;;;3.16;100.00;98733.15;213821;1311;22614;-72
2022/11/25 06:43:04;;;;;;;66.10;29.20;;;;;;;3.15;100.00;98735.45;213909;1311;22520;-72
2022/11/25 06:48:06;;;;;;;64.30;28.50;;;;;;;3.20;100.00;98741.89;214557;1289;22483;-74
2022/11/25 06:53:07;;;;;;;69.30;29.50;;;;;;;3.27;100.00;98748.88;214426;1289;22590;-72
2022/11/25 06:58:09;;;;;;;74.70;33.50;;;;;;;3.30;100.00;98747.88;214458;1281;24122;-72
2022/11/25 07:03:31;;;;;;;75.20;35.30;;;;;;;3.34;100.00;98752.17;214649;1281;22520;-71
2022/11/25 07:08:33;;;;;;;73.90;34.40;;;;;;;3.39;100.00;98760.23;215142;1281;139873;-73
2022/11/25 07:13:35;;;;;;;84.90;36.60;;;;;;;3.43;100.00;98762.22;214866;1284;138920;-73
2022/11/25 07:18:38;;;;;;;77.70;36.70;;;;;;;3.48;100.00;98760.64;214623;1281;138741;-72
2022/11/25 07:23:41;;;;;;;92.10;41.60;;;;;;;3.52;100.00;98771.77;214419;1288;138804;-72
2022/11/25 07:28:44;;;;;;;95.40;43.30;;;;;;;3.54;100.00;98777.31;214408;1310;138689;-72
2022/11/25 07:33:46;;;;;;;108.50;47.90;;;;;;;3.55;100.00;98776.77;214356;1284;22488;-73
2022/11/25 07:38:48;;;;;;;100.80;46.70;;;;;;;3.61;100.00;98775.41;214339;1285;138762;-72
2022/11/25 07:43:53;;;;;;;82.20;39.80;;;;;;;3.68;100.00;98778.80;214067;1299;138977;-72
2022/11/25 07:48:59;;;;;;;81.60;37.80;;;;;;;3.73;100.00;98781.36;214169;1281;138708;-71
2022/11/25 07:54:04;;;;;;;79.90;37.10;;;;;;;3.77;100.00;98784.23;214873;1284;138746;-72
2022/11/25 07:59:10;;;;;;;75.30;33.60;;;;;;;3.84;100.00;98785.28;214108;1295;138845;-73
2022/11/25 08:04:13;;;;;;;73.50;35.30;;;;;;;3.91;100.00;98789.88;214361;1310;22907;-73
2022/11/25 08:09:22;;;;;;;67.50;30.30;;;;;;;3.96;100.00;98794.36;215064;1285;138352;-73
2022/11/25 08:14:25;;;;;;;68.00;33.20;;;;;;;4.06;100.00;98794.59;214459;1284;138701;-71
2022/11/25 08:19:27;;;;;;;75.60;34.50;;;;;;;4.09;100.00;98793.77;214396;1284;138689;-72
2022/11/25 08:24:32;;;;;;;78.90;34.70;;;;;;;4.11;100.00;98798.48;214457;1286;139154;-72
2022/11/25 08:29:34;;;;;;;70.50;33.10;;;;;;;4.17;100.00;98805.45;214356;1282;139248;-71
2022/11/25 08:34:36;;;;;;;63.90;30.50;;;;;;;4.22;100.00;98811.92;214570;1280;138727;-72
2022/11/25 08:39:39;;;;;;;56.50;27.80;;;;;;;4.27;100.00;98812.52;214898;1289;23743;-71
2022/11/25 08:44:57;;;;;;;55.30;26.50;;;;;;;4.38;100.00;98813.03;214550;1287;138552;-71
2022/11/25 08:49:59;;;;;;;58.50;26.60;;;;;;;4.50;100.00;98813.33;214588;1284;138592;-70
2022/11/25 08:55:01;;;;;;;54.80;25.80;;;;;;;4.60;100.00;98812.28;214765;1288;138715;-70
2022/11/25 09:00:07;;;;;;;51.20;26.00;;;;;;;4.66;100.00;98816.70;214489;1284;139322;-71
2022/11/25 09:05:13;;;;;;;47.00;22.90;;;;;;;4.71;100.00;98818.71;214402;1284;139434;-72
2022/11/25 09:10:16;;;;;;;47.70;23.70;;;;;;;4.80;100.00;98820.89;215234;1281;22597;-71
2022/11/25 09:15:18;;;;;;;48.00;21.70;;;;;;;4.87;100.00;98830.79;214893;1281;138417;-70
2022/11/25 09:20:20;;;;;;;52.10;23.90;;;;;;;4.92;100.00;98834.29;214375;1287;138549;-70
2022/11/25 09:25:22;;;;;;;50.90;24.90;;;;;;;4.99;100.00;98836.64;214287;1284;139160;-71
2022/11/25 09:30:25;;;;;;;47.50;22.20;;;;;;;5.10;100.00;98833.66;214412;1310;138625;-71
2022/11/25 09:35:27;;;;;;;49.10;22.90;;;;;;;5.16;100.00;98831.87;214436;1295;139372;-70
2022/11/25 09:40:41;;;;;;;40.80;21.60;;;;;;;5.24;100.00;98824.93;214426;1295;22487;-72
2022/11/25 09:47:03;;;;;;;41.90;20.30;;;;;;;5.33;100.00;98828.10;214597;1304;24264;-71
2022/11/25 09:51:55;;;;;;;42.40;19.90;;;;;;;5.41;100.00;98831.94;214731;1284;25321;-71
2022/11/25 09:57:07;;;;;;;44.20;21.60;;;;;;;5.50;100.00;98826.42;214425;1288;138989;-70
2022/11/25 10:02:19;;;;;;;40.90;19.70;;;;;;;5.62;99.83;98830.67;214593;1300;138556;-69
2022/11/25 10:07:33;;;;;;;38.90;19.90;;;;;;;5.75;99.89;98836.45;214841;1288;138649;-71
2022/11/25 10:12:42;;;;;;;36.30;17.90;;;;;;;5.89;99.82;98840.49;214547;1288;138583;-69
2022/11/25 10:17:50;;;;;;;39.40;20.60;;;;;;;6.04;99.97;98838.10;214514;1284;138528;-69
2022/11/25 10:23:10;;;;;;;40.60;21.60;;;;;;;6.24;99.88;98840.20;214332;1281;138470;-70
2022/11/25 10:28:22;;;;;;;40.60;19.60;;;;;;;6.35;99.37;98840.05;214799;1281;22701;-72
2022/11/25 10:33:27;;;;;;;37.60;18.30;;;;;;;6.39;98.82;98843.37;214549;1281;138207;-71
2022/11/25 10:38:38;;;;;;;37.90;19.10;;;;;;;6.47;99.21;98835.10;214555;1281;139204;-71
2022/11/25 10:43:41;;;;;;;38.70;19.50;;;;;;;6.54;98.50;98836.98;214648;1281;138515;-71
2022/11/25 10:48:59;;;;;;;32.40;17.30;;;;;;;6.54;98.10;98838.85;214571;1281;138537;-71
2022/11/25 10:54:07;;;;;;;35.10;18.00;;;;;;;6.49;97.80;98841.13;214476;1281;138617;-70
2022/11/25 10:59:34;;;;;;;36.30;18.90;;;;;;;6.54;98.47;98841.63;214867;1281;138612;-70
2022/11/25 11:05:08;;;;;;;30.10;15.10;;;;;;;6.64;98.44;98846.98;214945;1294;22592;-69
2022/11/25 11:10:13;;;;;;;28.70;14.80;;;;;;;6.74;98.45;98846.77;215378;1287;23221;-70
2022/11/25 11:15:21;;;;;;;32.60;16.40;;;;;;;6.83;98.07;98846.84;214321;1308;138421;-73
2022/11/25 11:20:29;;;;;;;26.50;15.00;;;;;;;6.95;98.39;98845.86;214685;1288;138356;-74
2022/11/25 11:25:34;;;;;;;25.50;13.00;;;;;;;7.00;97.50;98843.48;214631;1295;138605;-72
2022/11/25 11:30:36;;;;;;;26.50;13.60;;;;;;;7.00;97.19;98843.05;214168;1283;138478;-71
2022/11/25 11:35:51;;;;;;;33.50;16.50;;;;;;;7.06;97.21;98839.65;214636;1310;138511;-71
2022/11/25 11:41:18;;;;;;;32.00;15.40;;;;;;;7.20;97.62;98839.52;214501;1310;139061;-71
2022/11/25 11:46:40;;;;;;;26.80;15.40;;;;;;;7.26;97.00;98842.67;214445;1288;22487;-70
2022/11/25 11:51:49;;;;;;;28.90;14.30;;;;;;;7.29;97.26;98835.38;214716;1278;138191;-72
2022/11/25 11:57:13;;;;;;;29.40;15.30;;;;;;;7.39;97.25;98845.09;214701;1287;138614;-71
2022/11/25 12:02:34;;;;;;;27.50;15.00;;;;;;;7.47;96.84;98845.30;214491;1295;139246;-71
2022/11/25 12:08:13;;;;;;;22.80;12.60;;;;;;;7.44;96.44;98839.74;214896;1287;139799;-71
2022/11/25 12:13:18;;;;;;;29.10;14.90;;;;;;;7.47;96.78;98846.48;214686;1281;138963;-80
2022/11/25 12:18:48;;;;;;;25.00;13.50;;;;;;;7.54;96.66;98846.64;214189;1310;138784;-70
2022/11/25 12:24:03;;;;;;;26.60;14.20;;;;;;;7.50;96.36;98849.79;214384;1288;138675;-69
2022/11/25 12:29:10;;;;;;;24.40;13.30;;;;;;;7.47;96.12;98849.84;214552;1281;138854;-70
2022/11/25 12:34:20;;;;;;;25.20;12.80;;;;;;;7.48;96.50;98847.02;214538;1304;25211;-72
2022/11/25 12:39:39;;;;;;;26.20;13.50;;;;;;;7.48;96.21;98850.63;214460;1289;138549;-70
2022/11/25 12:44:58;;;;;;;23.80;11.80;;;;;;;7.49;96.40;98848.62;214333;1298;137858;-71
2022/11/25 12:50:00;;;;;;;26.30;13.30;;;;;;;7.51;96.32;98845.14;214330;1310;139075;-70
2022/11/25 12:55:12;;;;;;;22.10;10.70;;;;;;;7.57;96.53;98847.66;214251;1310;138736;-70
2022/11/25 13:00:20;;;;;;;21.10;10.90;;;;;;;7.55;96.14;98843.92;214393;1280;138677;-71
2022/11/25 13:06:09;;;;;;;17.70;10.10;;;;;;;7.58;96.37;98852.77;214469;1281;139215;-71
2022/11/25 13:11:26;;;;;;;22.90;13.30;;;;;;;7.56;96.04;98855.00;214761;1286;138791;-71
2022/11/25 13:16:30;;;;;;;18.10;10.10;;;;;;;7.48;95.65;98856.02;214539;1285;22479;-72
2022/11/25 13:21:33;;;;;;;18.00;10.10;;;;;;;7.36;95.37;98865.12;214926;1281;138577;-80
2022/11/25 13:26:47;;;;;;;20.40;11.30;;;;;;;7.30;95.45;98864.59;214291;1286;138903;-72
2022/11/25 13:31:55;;;;;;;19.10;9.80;;;;;;;7.28;95.62;98862.07;214288;1310;138661;-73
2022/11/25 13:37:21;;;;;;;21.10;11.50;;;;;;;7.26;95.68;98861.80;214401;1288;138644;-72
2022/11/25 13:42:25;;;;;;;19.60;10.20;;;;;;;7.27;95.82;98866.73;214193;1287;138668;-72
2022/11/25 13:47:27;;;;;;;19.90;10.40;;;;;;;7.29;95.81;98868.47;214232;1295;138835;-71
2022/11/25 13:52:40;;;;;;;21.20;11.00;;;;;;;7.28;96.03;98867.25;214499;1285;22476;-72
2022/11/25 13:58:02;;;;;;;20.90;11.70;;;;;;;7.22;95.48;98866.69;214516;1295;138274;-73
2022/11/25 14:03:17;;;;;;;19.30;11.40;;;;;;;7.12;95.62;98868.01;214134;1281;138584;-71
2022/11/25 14:08:31;;;;;;;23.40;11.20;;;;;;;7.06;95.58;98870.93;214995;1281;138473;-73
2022/11/25 14:13:39;;;;;;;19.20;10.50;;;;;;;6.99;95.60;98871.80;214509;1281;138690;-72
2022/11/25 14:18:55;;;;;;;41.70;22.40;;;;;;;6.95;95.91;98873.24;214381;1280;138724;-73
2022/11/25 14:24:26;;;;;;;29.10;14.00;;;;;;;6.92;96.17;98874.19;214208;1282;138699;-74
2022/11/25 14:29:31;;;;;;;31.70;15.40;;;;;;;6.92;96.33;98877.70;214295;1310;138650;-73
2022/11/25 14:34:44;;;;;;;28.00;15.10;;;;;;;6.96;96.75;98883.00;214499;1281;22955;-73
2022/11/25 14:40:00;;;;;;;34.30;14.90;;;;;;;6.94;96.75;98881.60;214110;1297;22559;-71
2022/11/25 14:45:02;;;;;;;47.30;23.80;;;;;;;6.96;96.77;98889.75;214168;1281;138547;-73
2022/11/25 14:50:13;;;;;;;33.40;17.80;;;;;;;6.94;96.77;98892.05;214405;1281;138765;-72
2022/11/25 14:55:35;;;;;;;40.80;20.70;;;;;;;6.93;96.94;98890.64;214251;1309;138695;-73
2022/11/25 15:01:08;;;;;;;44.70;19.50;;;;;;;6.89;96.85;98888.13;214498;1288;22475;-70
2022/11/25 15:06:12;;;;;;;42.70;19.00;;;;;;;6.85;96.77;98890.24;213900;1288;25356;-71
2022/11/25 15:11:21;;;;;;;41.80;20.90;;;;;;;6.80;96.78;98885.23;213809;1312;22493;-72
2022/11/25 15:16:53;;;;;;;54.80;26.20;;;;;;;6.78;97.04;98887.83;213691;1306;22536;-72
2022/11/25 15:21:59;;;;;;;43.70;22.50;;;;;;;6.73;96.89;98894.94;213615;1312;22518;-71
2022/11/25 15:27:26;;;;;;;49.00;22.30;;;;;;;6.70;96.98;98895.03;213794;1312;22607;-72
2022/11/25 15:32:36;;;;;;;52.40;23.80;;;;;;;6.66;96.93;98899.70;213715;1312;25506;-72
2022/11/25 15:37:38;;;;;;;50.80;25.60;;;;;;;6.60;96.61;98902.92;213799;1312;22478;-71
2022/11/25 15:42:41;;;;;;;56.40;27.90;;;;;;;6.56;96.98;98908.02;213749;1312;25256;-72
2022/11/25 15:47:43;;;;;;;47.80;25.40;;;;;;;6.53;97.22;98903.73;213728;1312;22496;-71
2022/11/25 15:52:49;;;;;;;54.40;27.90;;;;;;;6.50;97.07;98902.98;213766;1311;22477;-71
2022/11/25 15:57:53;;;;;;;44.40;23.10;;;;;;;6.48;97.08;98906.32;213735;1311;22549;-71
2022/11/25 16:02:57;;;;;;;45.40;21.40;;;;;;;6.40;96.89;98910.95;213841;1312;24327;-71
2022/11/25 16:08:31;;;;;;;49.00;24.40;;;;;;;6.29;96.67;98914.52;213726;1309;24366;-71
2022/11/25 16:13:35;;;;;;;46.10;24.60;;;;;;;6.26;96.96;98915.92;213811;1312;25231;-71
2022/11/25 16:18:39;;;;;;;52.90;26.10;;;;;;;6.27;97.12;98920.73;213984;1312;22482;-71
2022/11/25 16:24:11;;;;;;;58.30;25.60;;;;;;;6.28;97.40;98923.44;213805;1312;22677;-72
2022/11/25 16:29:21;;;;;;;52.90;25.90;;;;;;;6.29;97.04;98926.16;213868;1312;22540;-71
2022/11/25 16:34:23;;;;;;;62.40;30.40;;;;;;;6.26;97.08;98928.75;213773;1312;22518;-72
2022/11/25 16:39:25;;;;;;;61.30;30.00;;;;;;;6.24;97.25;98929.31;213798;1312;24295;-72
2022/11/25 16:44:27;;;;;;;59.40;29.60;;;;;;;6.19;96.94;98930.98;213866;1312;24696;-71
2022/11/25 16:49:30;;;;;;;63.00;30.40;;;;;;;6.16;97.07;98931.23;213868;1312;24430;-72
2022/11/25 16:54:32;;;;;;;65.60;30.50;;;;;;;6.11;97.21;98932.05;213641;1312;24606;-73
2022/11/25 16:59:38;;;;;;;68.60;31.40;;;;;;;6.03;96.89;98927.30;213776;1312;22486;-72
2022/11/25 17:04:40;;;;;;;65.00;28.80;;;;;;;5.98;97.15;98935.23;213808;1304;24408;-71
2022/11/25 17:09:43;;;;;;;65.90;30.50;;;;;;;5.92;96.96;98940.48;213799;1312;24382;-72
2022/11/25 17:14:46;;;;;;;75.40;35.70;;;;;;;5.89;97.15;98955.13;213728;1312;25261;-73
2022/11/25 17:19:49;;;;;;;82.30;35.50;;;;;;;5.90;97.53;98955.95;213761;1312;25538;-72
2022/11/25 17:24:51;;;;;;;76.00;35.30;;;;;;;5.92;97.47;98950.86;213801;1312;22473;-72
2022/11/25 17:29:55;;;;;;;77.10;33.40;;;;;;;5.93;97.52;98953.64;213889;1312;22492;-72
2022/11/25 17:34:57;;;;;;;64.90;29.70;;;;;;;5.93;97.71;98953.63;213911;1312;25563;-72
2022/11/25 17:39:58;;;;;;;68.40;30.70;;;;;;;5.94;97.74;98954.16;213808;1312;25259;-72
2022/11/25 17:45:00;;;;;;;70.30;31.10;;;;;;;5.94;97.70;98957.68;213717;1312;24376;-72
2022/11/25 17:50:20;;;;;;;66.50;31.10;;;;;;;5.92;97.74;98965.26;213570;1312;25256;-72
2022/11/25 17:55:22;;;;;;;67.80;30.60;;;;;;;5.89;97.47;98963.05;213837;1312;22573;-71
2022/11/25 18:00:24;;;;;;;60.10;29.70;;;;;;;5.89;97.51;98968.38;213811;1312;22516;-71
2022/11/25 18:05:27;;;;;;;66.80;31.30;;;;;;;5.90;97.71;98971.63;213665;1306;22517;-71
2022/11/25 18:10:29;;;;;;;64.40;30.20;;;;;;;5.90;97.84;98979.34;213854;1311;22519;-72
2022/11/25 18:15:32;;;;;;;82.30;42.30;;;;;;;5.86;97.46;98985.74;213821;1312;25347;-71
2022/11/25 18:20:34;;;;;;;59.90;28.80;;;;;;;5.79;97.25;98985.31;213886;1312;22482;-72
2022/11/25 18:25:39;;;;;;;51.30;26.10;;;;;;;5.71;96.99;98991.39;213797;1307;22467;-72
2022/11/25 18:30:41;;;;;;;57.60;28.40;;;;;;;5.64;97.23;98993.45;214006;1312;22487;-71
2022/11/25 18:35:45;;;;;;;53.50;27.10;;;;;;;5.59;97.26;98999.45;213665;1312;24095;-71
2022/11/25 18:40:47;;;;;;;61.30;30.10;;;;;;;5.53;97.49;99001.31;213822;1311;24437;-73
2022/11/25 18:45:54;;;;;;;58.30;29.30;;;;;;;5.47;97.37;99007.30;213850;1312;22518;-72
2022/11/25 18:50:56;;;;;;;63.90;30.80;;;;;;;5.43;97.63;99007.05;213893;1312;25275;-72
2022/11/25 18:55:58;;;;;;;58.90;28.70;;;;;;;5.41;97.87;99005.90;213779;1312;22486;-72
2022/11/25 19:01:03;;;;;;;64.30;30.90;;;;;;;5.38;97.87;99001.94;213980;1312;22524;-71
2022/11/25 19:06:05;;;;;;;58.20;29.30;;;;;;;5.35;97.99;99005.29;213785;1312;22486;-71
2022/11/25 19:11:18;;;;;;;63.40;31.70;;;;;;;5.29;97.99;99010.71;213797;1311;24126;-72
2022/11/25 19:16:21;;;;;;;55.10;30.00;;;;;;;5.28;98.35;99012.92;213795;1312;22529;-72
2022/11/25 19:21:23;;;;;;;53.40;27.90;;;;;;;5.27;98.19;99010.95;213738;1312;22495;-72
2022/11/25 19:26:29;;;;;;;58.60;27.80;;;;;;;5.27;98.45;99012.91;213734;1312;24353;-72
2022/11/25 19:31:32;;;;;;;57.40;25.20;;;;;;;5.26;98.31;99015.67;213900;1312;25329;-72
2022/11/25 19:36:36;;;;;;;46.90;22.00;;;;;;;5.25;98.40;99020.38;213906;1311;25980;-72
2022/11/25 19:41:38;;;;;;;44.80;20.50;;;;;;;5.25;98.65;99024.05;213693;1312;22486;-72
2022/11/25 19:46:44;;;;;;;46.50;22.80;;;;;;;5.23;98.70;99027.36;213891;1312;22476;-71
2022/11/25 19:52:20;;;;;;;47.60;22.20;;;;;;;5.23;98.45;99032.63;213719;1312;25393;-72
2022/11/25 19:57:24;;;;;;;41.20;20.10;;;;;;;5.22;98.55;99033.52;213619;1312;24313;-72
2022/11/25 20:02:25;;;;;;;44.70;20.90;;;;;;;5.20;98.72;99038.75;213843;1312;24297;-73
2022/11/25 20:07:29;;;;;;;42.70;19.30;;;;;;;5.19;98.67;99040.60;213828;1312;24282;-73
2022/11/25 20:12:31;;;;;;;41.30;19.70;;;;;;;5.19;98.33;99045.06;213784;1311;23740;-71
2022/11/25 20:17:36;;;;;;;38.20;17.90;;;;;;;5.19;98.71;99046.77;213820;1312;22473;-72
2022/11/25 20:22:42;;;;;;;39.00;19.30;;;;;;;5.18;98.57;99050.95;213884;1312;22474;-74
2022/11/25 20:27:44;;;;;;;39.90;19.60;;;;;;;5.18;98.62;99052.11;213688;1312;25418;-74
2022/11/25 20:32:46;;;;;;;40.40;19.10;;;;;;;5.17;98.53;99054.01;213824;1307;22469;-75
2022/11/25 20:37:56;;;;;;;39.60;19.30;;;;;;;5.16;98.52;99059.14;213615;1311;25390;-75
2022/11/25 20:42:59;;;;;;;38.30;18.40;;;;;;;5.16;98.54;99066.95;213994;1312;24366;-74
2022/11/25 20:48:01;;;;;;;51.80;24.80;;;;;;;5.14;98.58;99065.82;213814;1312;24468;-75
2022/11/25 20:53:03;;;;;;;58.50;29.40;;;;;;;5.11;98.44;99068.32;213800;1311;25385;-75
2022/11/25 20:58:18;;;;;;;63.50;30.70;;;;;;;5.12;98.85;99069.02;213882;1312;22577;-76
2022/11/25 21:03:20;;;;;;;61.80;28.70;;;;;;;5.18;98.92;99065.91;213873;1312;24366;-75
2022/11/25 21:08:24;;;;;;;53.40;27.00;;;;;;;5.23;99.60;99065.03;213793;1311;24252;-75
2022/11/25 21:13:28;;;;;;;52.80;25.30;;;;;;;5.26;99.08;99077.19;213785;1313;22471;-75
2022/11/25 21:18:30;;;;;;;50.60;23.60;;;;;;;5.25;98.66;99072.71;213848;1311;22496;-76
2022/11/25 21:23:35;;;;;;;50.90;23.00;;;;;;;5.22;98.72;99082.39;213854;1312;22693;-74
2022/11/25 21:28:42;;;;;;;42.20;22.20;;;;;;;5.19;98.51;99081.13;214032;1312;22483;-76
2022/11/25 21:33:46;;;;;;;55.40;27.10;;;;;;;5.13;98.35;99081.42;213772;1311;22465;-75
2022/11/25 21:38:51;;;;;;;49.00;23.90;;;;;;;5.07;98.13;99084.46;213755;1311;22508;-75
2022/11/25 21:43:53;;;;;;;50.70;22.80;;;;;;;4.94;97.94;99086.63;213827;1312;22923;-75
2022/11/25 21:48:55;;;;;;;45.80;22.10;;;;;;;4.76;98.16;99085.89;213849;1311;22508;-75
2022/11/25 21:53:57;;;;;;;50.10;22.80;;;;;;;4.56;97.94;99097.04;213761;1312;24330;-75
2022/11/25 21:59:04;;;;;;;49.10;24.40;;;;;;;4.34;97.95;99095.30;213820;1313;25229;-75
2022/11/25 22:04:11;;;;;;;52.00;26.10;;;;;;;4.11;98.29;99102.00;213836;1312;22931;-75
2022/11/25 22:09:18;;;;;;;63.80;28.70;;;;;;;3.90;98.45;99104.63;213804;1312;22480;-75
2022/11/25 22:14:27;;;;;;;56.90;26.90;;;;;;;3.76;98.87;99112.80;213832;1311;22485;-75
2022/11/25 22:19:30;;;;;;;50.60;25.20;;;;;;;3.65;99.20;99120.84;213725;1313;22490;-74
2022/11/25 22:24:32;;;;;;;58.50;27.40;;;;;;;3.56;99.46;99126.77;213729;1311;25227;-74
2022/11/25 22:29:35;;;;;;;58.00;29.50;;;;;;;3.49;99.62;99133.06;213826;1312;22421;-75
2022/11/25 22:34:38;;;;;;;62.90;29.60;;;;;;;3.41;99.81;99141.31;213790;1312;22526;-74
2022/11/25 22:39:40;;;;;;;55.80;26.60;;;;;;;3.33;99.97;99143.42;213803;1312;105369;-74
2022/11/25 22:44:45;;;;;;;59.90;28.40;;;;;;;3.23;99.97;99148.67;213833;1312;23295;-75
2022/11/25 22:49:48;;;;;;;59.00;27.30;;;;;;;3.15;99.98;99151.34;213788;1312;22475;-75
2022/11/25 22:54:50;;;;;;;70.70;31.90;;;;;;;3.12;100.00;99156.73;213803;1312;25471;-75
2022/11/25 22:59:52;;;;;;;67.10;30.20;;;;;;;3.11;100.00;99159.52;213826;1309;22487;-74
2022/11/25 23:04:55;;;;;;;63.20;28.80;;;;;;;3.10;100.00;99159.66;213815;1312;24259;-75
2022/11/25 23:09:57;;;;;;;68.80;32.20;;;;;;;3.08;100.00;99160.19;213781;1312;25324;-75
2022/11/25 23:14:59;;;;;;;70.40;31.10;;;;;;;3.05;100.00;99164.41;213834;1312;24321;-75
2022/11/25 23:20:00;;;;;;;68.70;32.80;;;;;;;3.01;100.00;99162.63;213937;1306;22492;-75
2022/11/25 23:25:10;;;;;;;65.40;30.50;;;;;;;2.97;100.00;99161.09;213879;1305;22637;-76